sensor_id;sensor_type;location;lat;lon;timestamp;temperature;humidity
16180;DHT22;8196;49.428;10.906;2023-05-10T00:01:27;14.60;99.90
16180;DHT22;8196;49.428;10.906;2023-05-10T00:03:53;14.50;99.90
16180;DHT22;8196;49.428;10.906;2023-05-10T00:06:20;14.50;99.90
16180;DHT22;8196;49.428;10.906;2023-05-10T00:08:47;14.40;99.90
16180;DHT22;8196;49.428;10.906;2023-05-10T00:11:14;14.40;99.90
16180;DHT22;8196;49.428;10.906;2023-05-10T00:13:40;14.40;99.90
16180;DHT22;8196;49.428;10.906;2023-05-10T00:16:07;14.30;99.90
16180;DHT22;8196;49.428;10.906;2023-05-10T00:18:34;14.30;99.90
16180;DHT22;8196;49.428;10.906;2023-05-10T00:21:01;14.30;99.90
16180;DHT22;8196;49.428;10.906;2023-05-10T00:23:27;14.30;99.90
16180;DHT22;8196;49.428;10.906;2023-05-10T00:25:54;14.20;99.90
16180;DHT22;8196;49.428;10.906;2023-05-10T00:28:21;14.20;99.90
16180;DHT22;8196;49.428;10.906;2023-05-10T00:30:47;14.20;99.90
16180;DHT22;8196;49.428;10.906;2023-05-10T00:33:14;14.20;99.90
16180;DHT22;8196;49.428;10.906;2023-05-10T00:35:41;14.10;99.90
16180;DHT22;8196;49.428;10.906;2023-05-10T00:38:08;14.10;99.90
16180;DHT22;8196;49.428;10.906;2023-05-10T00:40:36;14.10;99.90
16180;DHT22;8196;49.428;10.906;2023-05-10T00:43:03;14.10;99.90
16180;DHT22;8196;49.428;10.906;2023-05-10T00:45:30;14.10;99.90
16180;DHT22;8196;49.428;10.906;2023-05-10T00:47:59;14.20;99.90
16180;DHT22;8196;49.428;10.906;2023-05-10T00:50:26;14.20;99.90
16180;DHT22;8196;49.428;10.906;2023-05-10T00:52:53;14.10;99.90
16180;DHT22;8196;49.428;10.906;2023-05-10T00:55:20;14.10;99.90
16180;DHT22;8196;49.428;10.906;2023-05-10T00:57:47;14.00;99.90
16180;DHT22;8196;49.428;10.906;2023-05-10T01:00:14;17.90;99.90
16180;DHT22;8196;49.428;10.906;2023-05-10T01:02:45;13.90;99.90
16180;DHT22;8196;49.428;10.906;2023-05-10T01:05:13;13.90;99.90
16180;DHT22;8196;49.428;10.906;2023-05-10T01:07:40;13.80;99.90
16180;DHT22;8196;49.428;10.906;2023-05-10T01:10:08;13.90;99.90
16180;DHT22;8196;49.428;10.906;2023-05-10T01:12:39;13.90;99.90
16180;DHT22;8196;49.428;10.906;2023-05-10T01:15:07;13.90;99.90
16180;DHT22;8196;49.428;10.906;2023-05-10T01:17:38;13.90;99.90
16180;DHT22;8196;49.428;10.906;2023-05-10T01:20:06;13.90;99.90
16180;DHT22;8196;49.428;10.906;2023-05-10T01:27:59;13.80;99.90
16180;DHT22;8196;49.428;10.906;2023-05-10T01:31:03;13.80;99.90
16180;DHT22;8196;49.428;10.906;2023-05-10T01:39:24;9.90;99.90
16180;DHT22;8196;49.428;10.906;2023-05-10T01:42:21;13.90;99.90
16180;DHT22;8196;49.428;10.906;2023-05-10T01:47:34;13.90;99.90
16180;DHT22;8196;49.428;10.906;2023-05-10T01:50:03;13.90;99.90
16180;DHT22;8196;49.428;10.906;2023-05-10T01:52:35;13.90;99.90
16180;DHT22;8196;49.428;10.906;2023-05-10T01:55:06;13.80;99.90
16180;DHT22;8196;49.428;10.906;2023-05-10T01:57:35;13.90;99.90
16180;DHT22;8196;49.428;10.906;2023-05-10T02:00:04;13.90;99.90
16180;DHT22;8196;49.428;10.906;2023-05-10T02:02:37;13.90;99.90
16180;DHT22;8196;49.428;10.906;2023-05-10T02:05:06;13.80;99.90
16180;DHT22;8196;49.428;10.906;2023-05-10T02:07:35;13.80;99.90
16180;DHT22;8196;49.428;10.906;2023-05-10T02:10:04;13.80;99.90
16180;DHT22;8196;49.428;10.906;2023-05-10T02:12:36;13.80;99.90
16180;DHT22;8196;49.428;10.906;2023-05-10T02:15:05;13.80;99.90
16180;DHT22;8196;49.428;10.906;2023-05-10T02:17:35;13.80;99.90
16180;DHT22;8196;49.428;10.906;2023-05-10T02:20:05;13.90;99.90
16180;DHT22;8196;49.428;10.906;2023-05-10T02:22:33;13.90;99.90
16180;DHT22;8196;49.428;10.906;2023-05-10T02:25:01;13.90;99.90
16180;DHT22;8196;49.428;10.906;2023-05-10T02:27:30;13.90;99.90
16180;DHT22;8196;49.428;10.906;2023-05-10T02:29:58;13.90;99.90
16180;DHT22;8196;49.428;10.906;2023-05-10T02:32:26;13.90;99.90
16180;DHT22;8196;49.428;10.906;2023-05-10T02:34:54;15.30;99.90
16180;DHT22;8196;49.428;10.906;2023-05-10T02:37:22;13.80;99.90
16180;DHT22;8196;49.428;10.906;2023-05-10T02:39:51;13.80;99.90
16180;DHT22;8196;49.428;10.906;2023-05-10T02:42:19;13.70;99.90
16180;DHT22;8196;49.428;10.906;2023-05-10T02:44:51;13.70;99.90
16180;DHT22;8196;49.428;10.906;2023-05-10T02:47:19;13.70;99.90
16180;DHT22;8196;49.428;10.906;2023-05-10T02:49:46;13.80;99.90
16180;DHT22;8196;49.428;10.906;2023-05-10T02:52:18;13.70;99.90
16180;DHT22;8196;49.428;10.906;2023-05-10T02:54:50;13.70;99.90
16180;DHT22;8196;49.428;10.906;2023-05-10T02:57:25;13.70;99.90
16180;DHT22;8196;49.428;10.906;2023-05-10T02:59:53;13.70;99.90
16180;DHT22;8196;49.428;10.906;2023-05-10T03:02:20;13.50;99.90
16180;DHT22;8196;49.428;10.906;2023-05-10T03:04:47;13.60;99.90
16180;DHT22;8196;49.428;10.906;2023-05-10T03:07:14;13.60;99.90
16180;DHT22;8196;49.428;10.906;2023-05-10T03:09:41;13.20;99.90
16180;DHT22;8196;49.428;10.906;2023-05-10T03:12:15;13.50;99.90
16180;DHT22;8196;49.428;10.906;2023-05-10T03:14:57;13.40;99.90
16180;DHT22;8196;49.428;10.906;2023-05-10T03:17:49;13.40;99.90
16180;DHT22;8196;49.428;10.906;2023-05-10T03:20:24;13.40;99.90
16180;DHT22;8196;49.428;10.906;2023-05-10T03:22:55;13.40;99.90
16180;DHT22;8196;49.428;10.906;2023-05-10T03:25:26;13.30;99.90
16180;DHT22;8196;49.428;10.906;2023-05-10T03:27:56;13.30;99.90
16180;DHT22;8196;49.428;10.906;2023-05-10T03:30:24;13.30;99.90
16180;DHT22;8196;49.428;10.906;2023-05-10T03:32:51;13.20;99.90
16180;DHT22;8196;49.428;10.906;2023-05-10T03:35:18;13.20;99.90
16180;DHT22;8196;49.428;10.906;2023-05-10T03:37:44;13.20;99.90
16180;DHT22;8196;49.428;10.906;2023-05-10T03:40:11;13.10;99.90
16180;DHT22;8196;49.428;10.906;2023-05-10T03:42:38;13.10;99.90
16180;DHT22;8196;49.428;10.906;2023-05-10T03:45:06;13.10;99.90
16180;DHT22;8196;49.428;10.906;2023-05-10T03:47:32;13.10;99.90
16180;DHT22;8196;49.428;10.906;2023-05-10T03:52:26;13.10;99.90
16180;DHT22;8196;49.428;10.906;2023-05-10T03:54:52;13.00;99.90
16180;DHT22;8196;49.428;10.906;2023-05-10T03:57:19;13.10;99.90
16180;DHT22;8196;49.428;10.906;2023-05-10T03:59:46;13.00;99.90
16180;DHT22;8196;49.428;10.906;2023-05-10T04:02:12;13.00;99.90
16180;DHT22;8196;49.428;10.906;2023-05-10T04:04:39;13.00;99.90
16180;DHT22;8196;49.428;10.906;2023-05-10T04:07:06;13.00;99.90
16180;DHT22;8196;49.428;10.906;2023-05-10T04:09:33;13.00;99.90
16180;DHT22;8196;49.428;10.906;2023-05-10T04:11:59;13.00;99.90
16180;DHT22;8196;49.428;10.906;2023-05-10T04:14:28;12.90;99.90
16180;DHT22;8196;49.428;10.906;2023-05-10T04:16:55;12.90;99.90
16180;DHT22;8196;49.428;10.906;2023-05-10T04:19:22;12.90;99.90
16180;DHT22;8196;49.428;10.906;2023-05-10T04:21:49;12.80;99.90
16180;DHT22;8196;49.428;10.906;2023-05-10T04:24:15;12.80;99.90
16180;DHT22;8196;49.428;10.906;2023-05-10T04:26:42;12.80;99.90
16180;DHT22;8196;49.428;10.906;2023-05-10T04:29:09;12.70;99.90
16180;DHT22;8196;49.428;10.906;2023-05-10T04:31:35;12.70;99.90
16180;DHT22;8196;49.428;10.906;2023-05-10T04:34:02;12.70;99.90
16180;DHT22;8196;49.428;10.906;2023-05-10T04:36:29;12.70;99.90
16180;DHT22;8196;49.428;10.906;2023-05-10T04:38:56;12.70;99.90
16180;DHT22;8196;49.428;10.906;2023-05-10T04:41:23;12.70;99.90
16180;DHT22;8196;49.428;10.906;2023-05-10T04:43:49;12.70;99.90
16180;DHT22;8196;49.428;10.906;2023-05-10T04:46:16;12.60;99.90
16180;DHT22;8196;49.428;10.906;2023-05-10T04:48:43;12.60;99.90
16180;DHT22;8196;49.428;10.906;2023-05-10T04:51:10;12.60;99.90
16180;DHT22;8196;49.428;10.906;2023-05-10T04:53:36;12.70;99.90
16180;DHT22;8196;49.428;10.906;2023-05-10T04:56:04;12.60;99.90
16180;DHT22;8196;49.428;10.906;2023-05-10T04:58:30;12.70;99.90
16180;DHT22;8196;49.428;10.906;2023-05-10T05:01:03;12.70;99.90
16180;DHT22;8196;49.428;10.906;2023-05-10T05:03:30;12.70;99.90
16180;DHT22;8196;49.428;10.906;2023-05-10T05:05:58;12.60;99.90
16180;DHT22;8196;49.428;10.906;2023-05-10T05:08:25;12.70;99.90
16180;DHT22;8196;49.428;10.906;2023-05-10T05:10:51;12.70;99.90
16180;DHT22;8196;49.428;10.906;2023-05-10T05:13:18;12.70;99.90
16180;DHT22;8196;49.428;10.906;2023-05-10T05:15:45;12.80;99.90
16180;DHT22;8196;49.428;10.906;2023-05-10T05:18:12;12.80;99.90
16180;DHT22;8196;49.428;10.906;2023-05-10T05:20:39;12.80;99.90
16180;DHT22;8196;49.428;10.906;2023-05-10T05:23:06;12.90;99.90
16180;DHT22;8196;49.428;10.906;2023-05-10T05:25:32;13.00;99.90
16180;DHT22;8196;49.428;10.906;2023-05-10T05:30:26;13.10;99.90
16180;DHT22;8196;49.428;10.906;2023-05-10T05:32:52;13.10;99.90
16180;DHT22;8196;49.428;10.906;2023-05-10T05:35:19;13.20;99.90
16180;DHT22;8196;49.428;10.906;2023-05-10T05:37:46;13.20;99.90
16180;DHT22;8196;49.428;10.906;2023-05-10T05:40:13;11.60;99.90
16180;DHT22;8196;49.428;10.906;2023-05-10T05:42:40;13.40;99.90
16180;DHT22;8196;49.428;10.906;2023-05-10T05:45:08;13.50;99.90
16180;DHT22;8196;49.428;10.906;2023-05-10T05:47:35;13.60;99.90
16180;DHT22;8196;49.428;10.906;2023-05-10T05:50:02;13.70;99.90
16180;DHT22;8196;49.428;10.906;2023-05-10T05:52:30;13.70;99.90
16180;DHT22;8196;49.428;10.906;2023-05-10T05:54:57;13.90;99.90
16180;DHT22;8196;49.428;10.906;2023-05-10T05:57:23;13.90;99.90
16180;DHT22;8196;49.428;10.906;2023-05-10T05:59:50;14.00;99.90
16180;DHT22;8196;49.428;10.906;2023-05-10T06:02:17;13.80;99.90
16180;DHT22;8196;49.428;10.906;2023-05-10T06:04:44;14.00;99.90
16180;DHT22;8196;49.428;10.906;2023-05-10T06:07:10;14.00;99.90
16180;DHT22;8196;49.428;10.906;2023-05-10T06:09:37;14.10;99.90
16180;DHT22;8196;49.428;10.906;2023-05-10T06:12:04;14.10;99.90
16180;DHT22;8196;49.428;10.906;2023-05-10T06:14:31;14.10;99.90
16180;DHT22;8196;49.428;10.906;2023-05-10T06:16:58;14.10;99.90
16180;DHT22;8196;49.428;10.906;2023-05-10T06:19:26;14.10;99.90
16180;DHT22;8196;49.428;10.906;2023-05-10T06:21:53;14.20;99.90
16180;DHT22;8196;49.428;10.906;2023-05-10T06:24:20;14.30;99.90
16180;DHT22;8196;49.428;10.906;2023-05-10T06:26:47;14.30;99.90
16180;DHT22;8196;49.428;10.906;2023-05-10T06:29:16;14.50;99.90
16180;DHT22;8196;49.428;10.906;2023-05-10T06:31:43;14.50;99.90
16180;DHT22;8196;49.428;10.906;2023-05-10T06:34:09;14.70;99.90
16180;DHT22;8196;49.428;10.906;2023-05-10T06:36:38;14.60;99.90
16180;DHT22;8196;49.428;10.906;2023-05-10T06:39:04;14.70;99.90
16180;DHT22;8196;49.428;10.906;2023-05-10T06:41:32;14.80;99.90
16180;DHT22;8196;49.428;10.906;2023-05-10T06:43:58;14.10;99.90
16180;DHT22;8196;49.428;10.906;2023-05-10T06:46:25;15.00;99.90
16180;DHT22;8196;49.428;10.906;2023-05-10T06:48:52;15.10;99.90
16180;DHT22;8196;49.428;10.906;2023-05-10T06:51:19;15.20;99.90
16180;DHT22;8196;49.428;10.906;2023-05-10T06:53:47;15.30;99.90
16180;DHT22;8196;49.428;10.906;2023-05-10T06:56:14;15.20;99.90
16180;DHT22;8196;49.428;10.906;2023-05-10T06:58:41;15.10;99.90
16180;DHT22;8196;49.428;10.906;2023-05-10T07:01:07;15.10;99.90
16180;DHT22;8196;49.428;10.906;2023-05-10T07:03:34;15.20;99.90
16180;DHT22;8196;49.428;10.906;2023-05-10T07:06:02;15.20;99.90
16180;DHT22;8196;49.428;10.906;2023-05-10T07:08:31;15.20;99.90
16180;DHT22;8196;49.428;10.906;2023-05-10T07:11:01;15.20;99.90
16180;DHT22;8196;49.428;10.906;2023-05-10T07:13:27;15.20;99.90
16180;DHT22;8196;49.428;10.906;2023-05-10T07:15:54;15.20;99.90
16180;DHT22;8196;49.428;10.906;2023-05-10T07:18:21;15.20;99.90
16180;DHT22;8196;49.428;10.906;2023-05-10T07:20:47;15.20;99.90
16180;DHT22;8196;49.428;10.906;2023-05-10T07:23:14;15.30;99.90
16180;DHT22;8196;49.428;10.906;2023-05-10T07:25:41;15.40;99.90
16180;DHT22;8196;49.428;10.906;2023-05-10T07:28:08;15.40;99.90
16180;DHT22;8196;49.428;10.906;2023-05-10T07:30:35;15.40;99.90
16180;DHT22;8196;49.428;10.906;2023-05-10T07:33:02;15.40;99.90
16180;DHT22;8196;49.428;10.906;2023-05-10T07:35:29;15.20;99.90
16180;DHT22;8196;49.428;10.906;2023-05-10T07:37:55;15.20;99.90
16180;DHT22;8196;49.428;10.906;2023-05-10T07:40:22;15.20;99.90
16180;DHT22;8196;49.428;10.906;2023-05-10T07:42:49;15.10;99.90
16180;DHT22;8196;49.428;10.906;2023-05-10T07:45:16;15.20;99.90
16180;DHT22;8196;49.428;10.906;2023-05-10T07:47:43;15.20;99.90
16180;DHT22;8196;49.428;10.906;2023-05-10T07:50:10;15.30;99.90
16180;DHT22;8196;49.428;10.906;2023-05-10T07:52:37;15.40;99.90
16180;DHT22;8196;49.428;10.906;2023-05-10T07:55:03;15.40;99.90
16180;DHT22;8196;49.428;10.906;2023-05-10T07:57:30;15.40;99.90
16180;DHT22;8196;49.428;10.906;2023-05-10T07:59:57;15.50;99.90
16180;DHT22;8196;49.428;10.906;2023-05-10T08:02:23;15.40;99.90
16180;DHT22;8196;49.428;10.906;2023-05-10T08:04:50;15.40;99.90
16180;DHT22;8196;49.428;10.906;2023-05-10T08:07:18;15.40;99.90
16180;DHT22;8196;49.428;10.906;2023-05-10T08:09:44;15.50;99.90
16180;DHT22;8196;49.428;10.906;2023-05-10T08:12:11;15.70;99.90
16180;DHT22;8196;49.428;10.906;2023-05-10T08:14:37;16.20;99.90
16180;DHT22;8196;49.428;10.906;2023-05-10T08:17:05;16.30;99.90
16180;DHT22;8196;49.428;10.906;2023-05-10T08:19:32;16.60;99.90
16180;DHT22;8196;49.428;10.906;2023-05-10T08:21:59;17.00;99.90
16180;DHT22;8196;49.428;10.906;2023-05-10T08:24:25;17.30;99.90
16180;DHT22;8196;49.428;10.906;2023-05-10T08:26:52;17.40;99.90
16180;DHT22;8196;49.428;10.906;2023-05-10T08:29:19;17.30;99.90
16180;DHT22;8196;49.428;10.906;2023-05-10T08:31:45;17.10;99.90
16180;DHT22;8196;49.428;10.906;2023-05-10T08:34:12;16.20;99.90
16180;DHT22;8196;49.428;10.906;2023-05-10T08:36:39;16.10;99.90
16180;DHT22;8196;49.428;10.906;2023-05-10T08:39:06;16.00;99.90
16180;DHT22;8196;49.428;10.906;2023-05-10T08:41:46;15.10;99.90
16180;DHT22;8196;49.428;10.906;2023-05-10T08:44:15;14.40;99.90
16180;DHT22;8196;49.428;10.906;2023-05-10T08:46:46;14.30;99.90
16180;DHT22;8196;49.428;10.906;2023-05-10T08:49:16;14.20;99.90
16180;DHT22;8196;49.428;10.906;2023-05-10T08:51:49;14.10;99.90
16180;DHT22;8196;49.428;10.906;2023-05-10T08:54:17;14.40;99.90
16180;DHT22;8196;49.428;10.906;2023-05-10T08:56:44;14.40;99.90
16180;DHT22;8196;49.428;10.906;2023-05-10T08:59:14;14.60;99.90
16180;DHT22;8196;49.428;10.906;2023-05-10T09:01:42;14.80;99.90
16180;DHT22;8196;49.428;10.906;2023-05-10T09:04:11;15.10;99.90
16180;DHT22;8196;49.428;10.906;2023-05-10T09:06:38;15.20;99.90
16180;DHT22;8196;49.428;10.906;2023-05-10T09:09:06;15.50;99.90
16180;DHT22;8196;49.428;10.906;2023-05-10T09:11:33;15.80;99.90
16180;DHT22;8196;49.428;10.906;2023-05-10T09:14:01;16.50;99.90
16180;DHT22;8196;49.428;10.906;2023-05-10T09:16:28;16.50;99.90
16180;DHT22;8196;49.428;10.906;2023-05-10T09:18:54;16.80;99.90
16180;DHT22;8196;49.428;10.906;2023-05-10T09:21:21;17.20;99.90
16180;DHT22;8196;49.428;10.906;2023-05-10T09:23:48;17.80;99.90
16180;DHT22;8196;49.428;10.906;2023-05-10T09:26:16;18.00;99.90
16180;DHT22;8196;49.428;10.906;2023-05-10T09:28:53;18.20;99.90
16180;DHT22;8196;49.428;10.906;2023-05-10T09:31:20;18.40;99.90
16180;DHT22;8196;49.428;10.906;2023-05-10T09:33:48;18.50;99.90
16180;DHT22;8196;49.428;10.906;2023-05-10T09:36:15;18.60;99.90
16180;DHT22;8196;49.428;10.906;2023-05-10T09:38:51;19.10;97.10
16180;DHT22;8196;49.428;10.906;2023-05-10T09:41:21;19.30;97.30
16180;DHT22;8196;49.428;10.906;2023-05-10T09:43:51;19.30;95.30
16180;DHT22;8196;49.428;10.906;2023-05-10T09:46:22;18.90;96.00
16180;DHT22;8196;49.428;10.906;2023-05-10T09:48:49;18.50;97.30
16180;DHT22;8196;49.428;10.906;2023-05-10T09:51:23;18.30;96.20
16180;DHT22;8196;49.428;10.906;2023-05-10T09:54:12;18.30;95.70
16180;DHT22;8196;49.428;10.906;2023-05-10T09:56:39;18.20;95.80
16180;DHT22;8196;49.428;10.906;2023-05-10T09:59:10;18.40;95.90
16180;DHT22;8196;49.428;10.906;2023-05-10T10:01:38;18.50;96.20
16180;DHT22;8196;49.428;10.906;2023-05-10T10:04:07;18.90;94.50
16180;DHT22;8196;49.428;10.906;2023-05-10T10:06:36;19.00;94.40
16180;DHT22;8196;49.428;10.906;2023-05-10T10:09:04;19.20;92.80
16180;DHT22;8196;49.428;10.906;2023-05-10T10:11:31;19.90;91.70
16180;DHT22;8196;49.428;10.906;2023-05-10T10:13:59;21.20;90.20
16180;DHT22;8196;49.428;10.906;2023-05-10T10:16:28;23.10;84.50
16180;DHT22;8196;49.428;10.906;2023-05-10T10:18:56;23.90;67.40
16180;DHT22;8196;49.428;10.906;2023-05-10T10:21:23;23.30;67.60
16180;DHT22;8196;49.428;10.906;2023-05-10T10:23:51;22.60;68.20
16180;DHT22;8196;49.428;10.906;2023-05-10T10:26:20;22.00;68.00
16180;DHT22;8196;49.428;10.906;2023-05-10T10:31:34;20.30;74.40
16180;DHT22;8196;49.428;10.906;2023-05-10T10:34:07;19.40;78.50
16180;DHT22;8196;49.428;10.906;2023-05-10T10:36:50;19.40;79.40
16180;DHT22;8196;49.428;10.906;2023-05-10T10:39:18;19.10;82.50
16180;DHT22;8196;49.428;10.906;2023-05-10T10:41:55;19.00;83.50
16180;DHT22;8196;49.428;10.906;2023-05-10T10:44:23;19.00;84.60
16180;DHT22;8196;49.428;10.906;2023-05-10T10:52:28;19.80;82.10
16180;DHT22;8196;49.428;10.906;2023-05-10T10:57:31;20.40;78.20
16180;DHT22;8196;49.428;10.906;2023-05-10T11:02:48;21.00;77.20
16180;DHT22;8196;49.428;10.906;2023-05-10T11:10:35;21.10;75.60
16180;DHT22;8196;49.428;10.906;2023-05-10T11:15:34;19.80;78.60
16180;DHT22;8196;49.428;10.906;2023-05-10T11:18:25;19.40;80.00
16180;DHT22;8196;49.428;10.906;2023-05-10T11:23:23;18.60;85.80
16180;DHT22;8196;49.428;10.906;2023-05-10T11:25:49;18.40;86.90
16180;DHT22;8196;49.428;10.906;2023-05-10T11:28:18;18.30;88.20
16180;DHT22;8196;49.428;10.906;2023-05-10T11:30:46;18.20;87.50
16180;DHT22;8196;49.428;10.906;2023-05-10T11:33:16;18.10;88.00
16180;DHT22;8196;49.428;10.906;2023-05-10T11:35:43;21.50;90.50
16180;DHT22;8196;49.428;10.906;2023-05-10T11:38:11;18.00;88.90
16180;DHT22;8196;49.428;10.906;2023-05-10T11:40:39;18.00;89.80
16180;DHT22;8196;49.428;10.906;2023-05-10T11:43:09;18.10;90.00
16180;DHT22;8196;49.428;10.906;2023-05-10T11:45:37;18.30;89.30
16180;DHT22;8196;49.428;10.906;2023-05-10T11:48:04;18.40;88.30
16180;DHT22;8196;49.428;10.906;2023-05-10T11:50:31;18.60;86.70
16180;DHT22;8196;49.428;10.906;2023-05-10T11:52:59;18.90;85.00
16180;DHT22;8196;49.428;10.906;2023-05-10T11:55:25;19.20;81.40
16180;DHT22;8196;49.428;10.906;2023-05-10T11:57:53;19.40;80.10
16180;DHT22;8196;49.428;10.906;2023-05-10T12:00:21;19.70;79.30
16180;DHT22;8196;49.428;10.906;2023-05-10T12:02:48;16.00;72.50
16180;DHT22;8196;49.428;10.906;2023-05-10T12:05:15;20.30;74.90
16180;DHT22;8196;49.428;10.906;2023-05-10T12:07:42;20.40;75.30
16180;DHT22;8196;49.428;10.906;2023-05-10T12:10:11;20.50;73.40
16180;DHT22;8196;49.428;10.906;2023-05-10T12:12:43;20.40;72.60
16180;DHT22;8196;49.428;10.906;2023-05-10T12:15:16;20.30;73.20
16180;DHT22;8196;49.428;10.906;2023-05-10T12:17:45;20.30;73.50
16180;DHT22;8196;49.428;10.906;2023-05-10T12:20:21;20.30;73.40
16180;DHT22;8196;49.428;10.906;2023-05-10T12:22:52;20.10;74.80
16180;DHT22;8196;49.428;10.906;2023-05-10T12:25:21;20.00;76.40
16180;DHT22;8196;49.428;10.906;2023-05-10T12:27:53;20.00;77.80
16180;DHT22;8196;49.428;10.906;2023-05-10T12:30:22;20.00;78.30
16180;DHT22;8196;49.428;10.906;2023-05-10T12:32:50;20.10;77.70
16180;DHT22;8196;49.428;10.906;2023-05-10T12:35:17;20.20;77.40
16180;DHT22;8196;49.428;10.906;2023-05-10T12:37:43;20.20;78.50
16180;DHT22;8196;49.428;10.906;2023-05-10T12:40:11;18.70;76.40
16180;DHT22;8196;49.428;10.906;2023-05-10T12:42:39;20.40;77.40
16180;DHT22;8196;49.428;10.906;2023-05-10T12:45:07;20.50;76.50
16180;DHT22;8196;49.428;10.906;2023-05-10T12:47:34;20.50;76.80
16180;DHT22;8196;49.428;10.906;2023-05-10T12:50:02;20.60;75.60
16180;DHT22;8196;49.428;10.906;2023-05-10T12:52:29;20.60;75.10
16180;DHT22;8196;49.428;10.906;2023-05-10T12:54:56;20.70;74.20
16180;DHT22;8196;49.428;10.906;2023-05-10T12:57:23;20.70;74.90
16180;DHT22;8196;49.428;10.906;2023-05-10T12:59:50;20.70;74.80
16180;DHT22;8196;49.428;10.906;2023-05-10T13:02:17;20.80;75.30
16180;DHT22;8196;49.428;10.906;2023-05-10T13:04:45;21.10;72.80
16180;DHT22;8196;49.428;10.906;2023-05-10T13:07:15;21.20;73.30
16180;DHT22;8196;49.428;10.906;2023-05-10T13:09:42;21.10;72.60
16180;DHT22;8196;49.428;10.906;2023-05-10T13:12:09;21.10;73.30
16180;DHT22;8196;49.428;10.906;2023-05-10T13:14:36;21.20;72.40
16180;DHT22;8196;49.428;10.906;2023-05-10T13:17:03;21.20;73.10
16180;DHT22;8196;49.428;10.906;2023-05-10T13:19:30;21.20;73.20
16180;DHT22;8196;49.428;10.906;2023-05-10T13:21:57;21.10;72.40
16180;DHT22;8196;49.428;10.906;2023-05-10T13:24:24;21.10;71.90
16180;DHT22;8196;49.428;10.906;2023-05-10T13:26:51;21.10;72.50
16180;DHT22;8196;49.428;10.906;2023-05-10T13:29:18;21.10;70.90
16180;DHT22;8196;49.428;10.906;2023-05-10T13:31:45;21.00;70.50
16180;DHT22;8196;49.428;10.906;2023-05-10T13:34:12;20.80;70.50
16180;DHT22;8196;49.428;10.906;2023-05-10T13:36:39;20.80;71.10
16180;DHT22;8196;49.428;10.906;2023-05-10T13:39:05;20.80;70.30
16180;DHT22;8196;49.428;10.906;2023-05-10T13:41:32;20.80;71.30
16180;DHT22;8196;49.428;10.906;2023-05-10T13:43:59;20.70;70.00
16180;DHT22;8196;49.428;10.906;2023-05-10T13:46:26;20.70;70.60
16180;DHT22;8196;49.428;10.906;2023-05-10T13:48:53;20.70;69.50
16180;DHT22;8196;49.428;10.906;2023-05-10T13:51:19;20.50;70.20
16180;DHT22;8196;49.428;10.906;2023-05-10T13:53:46;20.40;71.20
16180;DHT22;8196;49.428;10.906;2023-05-10T13:56:13;20.40;71.80
16180;DHT22;8196;49.428;10.906;2023-05-10T13:58:40;20.30;71.80
16180;DHT22;8196;49.428;10.906;2023-05-10T14:01:07;20.20;72.70
16180;DHT22;8196;49.428;10.906;2023-05-10T14:03:35;20.10;73.60
16180;DHT22;8196;49.428;10.906;2023-05-10T14:06:02;20.10;73.80
16180;DHT22;8196;49.428;10.906;2023-05-10T14:08:28;20.20;74.80
16180;DHT22;8196;49.428;10.906;2023-05-10T14:10:55;20.30;75.10
16180;DHT22;8196;49.428;10.906;2023-05-10T14:13:23;20.30;74.10
16180;DHT22;8196;49.428;10.906;2023-05-10T14:15:53;20.30;73.70
16180;DHT22;8196;49.428;10.906;2023-05-10T14:18:20;20.30;75.00
16180;DHT22;8196;49.428;10.906;2023-05-10T14:20:47;22.40;76.40
16180;DHT22;8196;49.428;10.906;2023-05-10T14:23:14;20.50;74.50
16180;DHT22;8196;49.428;10.906;2023-05-10T14:25:40;20.50;74.10
16180;DHT22;8196;49.428;10.906;2023-05-10T14:28:07;20.40;75.50
16180;DHT22;8196;49.428;10.906;2023-05-10T14:30:34;20.30;74.80
16180;DHT22;8196;49.428;10.906;2023-05-10T14:33:02;20.20;75.40
16180;DHT22;8196;49.428;10.906;2023-05-10T14:35:29;20.00;74.90
16180;DHT22;8196;49.428;10.906;2023-05-10T14:37:57;20.00;76.30
16180;DHT22;8196;49.428;10.906;2023-05-10T14:40:25;20.10;76.40
16180;DHT22;8196;49.428;10.906;2023-05-10T14:42:52;20.20;76.90
16180;DHT22;8196;49.428;10.906;2023-05-10T14:45:20;20.30;76.10
16180;DHT22;8196;49.428;10.906;2023-05-10T14:47:47;20.50;76.70
16180;DHT22;8196;49.428;10.906;2023-05-10T14:50:14;20.60;75.30
16180;DHT22;8196;49.428;10.906;2023-05-10T14:53:01;20.40;73.80
16180;DHT22;8196;49.428;10.906;2023-05-10T14:55:27;20.10;75.00
16180;DHT22;8196;49.428;10.906;2023-05-10T14:57:54;19.90;77.00
16180;DHT22;8196;49.428;10.906;2023-05-10T15:00:21;19.50;77.40
16180;DHT22;8196;49.428;10.906;2023-05-10T15:02:48;19.00;79.10
16180;DHT22;8196;49.428;10.906;2023-05-10T15:05:16;18.70;79.00
16180;DHT22;8196;49.428;10.906;2023-05-10T15:07:43;18.60;78.90
16180;DHT22;8196;49.428;10.906;2023-05-10T15:10:10;18.30;78.70
16180;DHT22;8196;49.428;10.906;2023-05-10T15:12:38;18.00;78.60
16180;DHT22;8196;49.428;10.906;2023-05-10T15:15:05;17.60;79.50
16180;DHT22;8196;49.428;10.906;2023-05-10T15:17:33;16.40;80.10
16180;DHT22;8196;49.428;10.906;2023-05-10T15:20:00;17.50;81.00
16180;DHT22;8196;49.428;10.906;2023-05-10T15:22:30;17.50;80.80
16180;DHT22;8196;49.428;10.906;2023-05-10T15:25:00;17.40;80.60
16180;DHT22;8196;49.428;10.906;2023-05-10T15:27:26;17.40;81.30
16180;DHT22;8196;49.428;10.906;2023-05-10T15:29:53;17.30;81.90
16180;DHT22;8196;49.428;10.906;2023-05-10T15:32:20;17.20;82.40
16180;DHT22;8196;49.428;10.906;2023-05-10T15:34:46;16.90;82.70
16180;DHT22;8196;49.428;10.906;2023-05-10T15:37:13;16.90;83.40
16180;DHT22;8196;49.428;10.906;2023-05-10T15:39:40;16.80;82.40
16180;DHT22;8196;49.428;10.906;2023-05-10T15:42:06;16.80;82.00
16180;DHT22;8196;49.428;10.906;2023-05-10T15:44:33;16.60;81.60
16180;DHT22;8196;49.428;10.906;2023-05-10T15:47:01;16.60;82.40
16180;DHT22;8196;49.428;10.906;2023-05-10T15:49:29;16.70;82.80
16180;DHT22;8196;49.428;10.906;2023-05-10T15:51:56;16.80;83.80
16180;DHT22;8196;49.428;10.906;2023-05-10T15:54:22;17.00;84.80
16180;DHT22;8196;49.428;10.906;2023-05-10T15:56:49;18.80;87.30
16180;DHT22;8196;49.428;10.906;2023-05-10T15:59:16;17.30;85.60
16180;DHT22;8196;49.428;10.906;2023-05-10T16:01:42;17.40;86.50
16180;DHT22;8196;49.428;10.906;2023-05-10T16:04:09;17.60;86.30
16180;DHT22;8196;49.428;10.906;2023-05-10T16:06:36;17.60;86.90
16180;DHT22;8196;49.428;10.906;2023-05-10T16:09:03;17.60;87.00
16180;DHT22;8196;49.428;10.906;2023-05-10T16:11:30;17.60;86.90
16180;DHT22;8196;49.428;10.906;2023-05-10T16:13:57;17.60;85.30
16180;DHT22;8196;49.428;10.906;2023-05-10T16:16:23;17.50;85.90
16180;DHT22;8196;49.428;10.906;2023-05-10T16:18:51;17.40;87.40